East Jefferson, New York
Current Conditions -  °F | °C
As of 11:15 AM on Monday 22 Dec 2014 (Local Time) from KNY0 Reporting Station
Overcast Overcast  
Wind Chill: 30°   Ceiling: 1300
Heat Index: 30°   Visibility: 7mi
Dew Point: 26°   Wind: 3mph
Humidity: 83%   Direction: 120°ESE
Pressure: 30.3"   Gusts: NA
Location:  42.5008°N, 74.6014°W
Report Text: KNY0 221615Z AUTO 12003KT 7SM OVC013 M01/M03 A3030 RMK AO2 T10101035
Loading
Personal Weather Stations






























Interactive Weather Map New forecast layout! Learn more

10-Day Weather Forecast

Advertisements
Track Severe Weather on mobile